Latest Coastal Weather Observations for Rottnest Island

IDW60701

Issued at 8:22 pm WST Friday 27 May 2016 (issued every 10 minutes, with the page automatically refreshed every 10 minutes)

About coastal observations | Map of coastal stations | Coastal observations for WA | Marine services | Other Formats
Station Details ID: 009193 Name: ROTTNEST ISLAND Lat: -32.01 Lon: 115.50 Height: 43.1 m
Data from the previous 72 hours. | See also: Recent months at Rottnest Island
Date/Time
WST
Temp

°C
Wind Pressure Rain
since 9am
mm
Weather Cloud Vis
km
Sea
Height
m
Swell
Dir
 
Speed
knots
Gust
knots
hPa Trend Height
m
Period
s
Dir
27/08:00pm 16.6 NW 21 27 1017.5 - 0.0 - - - - - - -
27/07:30pm 16.1 NW 14 27 1017.6 - 0.0 - - - - - - -
27/07:26pm 16.1 NW 18 27 1017.7 - 0.0 - - - - - - -
27/07:22pm 16.9 NW 18 27 1017.4 - 0.0 - - - - - - -
27/07:17pm 17.0 NW 15 24 1017.5 - 0.0 - - - - - - -
27/07:00pm 18.7 NNW 11 14 1017.4 - 0.0 - - - - - - -
27/06:30pm 18.4 NNW 10 14 1017.5 - 0.0 - - - - - - -
27/06:00pm 18.6 NNW 12 15 1017.3 - 0.0 - - - - - - -
27/05:30pm 18.7 NNW 11 14 1017.3 - 0.0 - - - - - - -
27/05:00pm 18.7 N 13 16 1017.0 - 0.0 - - - - - - -
27/04:30pm 18.7 N 14 18 1016.8 - 0.0 - - - - - - -
27/04:00pm 19.5 NNE 12 15 1016.8 - 0.0 - - - - - - -
27/03:30pm 19.6 N 12 17 1017.2 - 0.0 - - - - - - -
27/03:00pm 19.6 N 11 15 1017.6 - 0.0 - - - - - - -
27/02:30pm 19.6 NNE 11 15 1018.0 - 0.0 - - - - - - -
27/02:00pm 19.9 NNE 11 15 1018.6 - 0.0 - - - - - - -
27/01:30pm 19.5 NNE 12 16 1019.1 - 0.0 - - - - - - -
27/01:00pm 19.5 N 13 16 1019.6 - 0.0 - - - - - - -
27/12:30pm 19.4 N 14 17 1020.0 - 0.0 - - - - - - -
27/12:00pm 19.0 N 13 17 1020.7 - 0.0 - - - - - - -
27/11:30am 17.7 NNE 13 15 1021.2 - 0.0 - - - - - - -
27/11:00am 17.8 N 15 19 1021.6 - 0.0 - - - - - - -
27/10:30am 17.2 NNE 14 17 1022.0 - 0.0 - - - - - - -
27/10:00am 16.7 NNE 12 16 1022.3 - 0.0 - - - - - - -
27/09:30am 16.0 NNE 13 17 1022.3 - 0.0 - - - - - - -
27/09:00am 15.4 NNE 12 15 1022.2 - 0.6 - - - - - - -
27/08:30am 15.4 NNE 10 14 1022.0 - 0.6 - - - - - - -
27/08:00am 14.8 NNE 11 14 1022.0 - 0.6 - - - - - - -
27/07:30am 14.7 NNE 11 15 1022.0 - 0.6 - - - - - - -
27/07:00am 14.7 NNE 11 15 1021.8 - 0.6 - - - - - - -
27/06:30am 14.8 NNE 12 16 1021.6 - 0.6 - - - - - - -
27/06:00am 14.8 NNE 13 16 1021.5 - 0.6 - - - - - - -
27/05:30am 14.8 NNE 12 15 1021.2 - 0.6 - - - - - - -
27/05:00am 14.4 NNE 8 11 1021.5 - 0.6 - - - - - - -
27/04:30am 14.7 NNE 9 11 1021.5 - 0.6 - - - - - - -
27/04:00am 14.6 NNE 9 12 1021.6 - 0.6 - - - - - - -
27/03:30am 14.3 NE 10 12 1021.8 - 0.6 - - - - - - -
27/03:00am 14.3 NE 8 10 1022.2 - 0.6 - - - - - - -
27/02:30am 14.1 NE 7 9 1022.1 - 0.6 - - - - - - -
27/02:00am 14.2 NE 9 11 1022.0 - 0.6 - - - - - - -
27/01:30am 14.3 ENE 9 10 1022.2 - 0.6 - - - - - - -
27/01:00am 14.0 ENE 8 9 1022.1 - 0.6 - - - - - - -
27/12:30am 14.2 ENE 8 9 1022.1 - 0.6 - - - - - - -
27/12:00am 14.4 E 8 9 1022.3 - 0.6 - - - - - - -
 
Date/Time
WST
Temp

°C
Wind Pressure Rain
since 9am
mm
Weather Cloud Vis
km
Sea
Height
m
Swell
Dir
 
Speed
knots
Gust
knots
hPa Trend Height
m
Period
s
Dir
26/11:30pm 14.7 E 8 9 1022.4 - 0.6 - - - - - - -
26/11:00pm 15.0 E 7 8 1022.5 - 0.6 - - - - - - -
26/10:30pm 15.1 E 8 9 1022.6 - 0.6 - - - - - - -
26/10:00pm 15.0 E 6 7 1022.5 - 0.6 - - - - - - -
26/09:30pm 15.1 ENE 6 7 1022.5 - 0.6 - - - - - - -
26/09:00pm 15.1 E 6 6 1022.2 - 0.6 - - - - - - -
26/08:30pm 15.1 E 7 9 1022.1 - 0.6 - - - - - - -
26/08:00pm 16.2 SE 9 13 1021.8 - 0.6 - - - - - - -
26/07:30pm 16.3 ESE 6 7 1021.8 - 0.6 - - - - - - -
26/07:00pm 16.1 SE 5 8 1021.5 - 0.6 - - - - - - -
26/06:30pm 16.4 SSE 7 10 1020.9 - 0.6 - - - - - - -
26/06:00pm 16.3 S 9 11 1020.4 - 0.6 - - - - - - -
26/05:30pm 16.3 S 10 13 1020.3 - 0.6 - - - - - - -
26/05:00pm 16.8 S 12 14 1020.0 - 0.6 - - - - - - -
26/04:30pm 16.8 S 11 15 1020.0 - 0.6 - - - - - - -
26/04:00pm 17.4 S 11 15 1019.3 - 0.6 - - - - - - -
26/03:30pm 17.4 S 15 17 1019.0 - 0.6 - - - - - - -
26/03:00pm 17.8 S 13 19 1018.9 - 0.6 - - - - - - -
26/02:30pm 18.4 SSW 14 17 1018.9 - 0.6 - - - - - - -
26/02:00pm 17.5 S 10 13 1018.8 - 0.6 - - - - - - -
26/01:30pm 17.7 S 9 12 1018.6 - 0.6 - - - - - - -
26/01:00pm 16.7 S 7 11 1018.7 - 0.6 - - - - - - -
26/12:30pm 15.9 SSW 9 15 1018.8 - 0.2 - - - - - - -
26/12:00pm 17.8 S 17 22 1018.6 - 0.0 - - - - - - -
26/11:30am 17.8 SSW 15 18 1018.6 - 0.0 - - - - - - -
26/11:00am 18.5 SW 15 21 1018.6 - 0.0 - - - - - - -
26/10:30am 18.3 WSW 15 19 1018.3 - 0.0 - - - - - - -
26/10:00am 18.4 WSW 15 18 1017.6 - 0.0 - - - - - - -
26/09:30am 18.4 WSW 14 18 1017.4 - 0.0 - - - - - - -
26/09:00am 17.5 WSW 12 18 1017.1 - 3.8 - - - - - - -
26/08:30am 17.0 WSW 12 17 1016.6 - 3.8 - - - - - - -
26/08:00am 16.4 WSW 13 17 1016.3 - 3.8 - - - - - - -
26/07:30am 15.7 SW 17 23 1015.6 - 3.8 - - - - - - -
26/07:00am 16.1 WSW 16 22 1015.1 - 3.8 - - - - - - -
26/06:30am 16.7 WSW 15 21 1014.7 - 3.2 - - - - - - -
26/06:00am 17.0 WSW 16 21 1014.4 - 3.2 - - - - - - -
26/05:30am 16.9 WSW 18 23 1014.0 - 3.2 - - - - - - -
26/05:00am 16.9 WSW 17 22 1013.9 - 3.2 - - - - - - -
26/04:30am 16.9 WSW 18 26 1014.2 - 3.2 - - - - - - -
26/04:00am 17.0 W 16 21 1013.7 - 3.2 - - - - - - -
26/03:30am 16.9 WSW 18 23 1013.4 - 3.2 - - - - - - -
26/03:00am 16.8 WSW 17 25 1013.1 - 3.2 - - - - - - -
26/02:30am 16.8 W 18 25 1013.1 - 3.2 - - - - - - -
26/02:00am 16.9 W 17 24 1012.8 - 3.2 - - - - - - -
26/01:30am 16.7 W 15 23 1012.4 - 3.2 - - - - - - -
26/01:00am 15.3 WSW 16 24 1012.0 - 3.2 - - - - - - -
26/12:30am 16.5 W 15 21 1012.5 - 3.2 - - - - - - -
26/12:00am 16.0 W 12 16 1012.6 - 3.2 - - - - - - -
 
Date/Time
WST
Temp

°C
Wind Pressure Rain
since 9am
mm
Weather Cloud Vis
km
Sea
Height
m
Swell
Dir
 
Speed
knots
Gust
knots
hPa Trend Height
m
Period
s
Dir
25/11:34pm 14.4 WSW 17 28 1012.6 - 3.2 - - - - - - -
25/11:30pm 14.5 W 21 29 1012.7 - 3.2 - - - - - - -
25/11:20pm 16.3 W 16 30 1012.9 - 3.2 - - - - - - -
25/11:00pm 15.9 WSW 11 14 1012.7 - 3.2 - - - - - - -
25/10:30pm 15.6 WSW 13 19 1013.2 - 3.2 - - - - - - -
25/10:00pm 15.8 WNW 12 15 1012.1 - 3.2 - - - - - - -
25/09:30pm 15.8 WNW 14 19 1012.6 - 3.2 - - - - - - -
25/09:00pm 15.0 WNW 11 14 1012.7 - 3.2 - - - - - - -
25/08:30pm 14.8 NW 10 14 1012.9 - 3.2 - - - - - - -
25/08:00pm 14.6 NNW 11 15 1013.0 - 3.2 - - - - - - -
25/07:30pm 14.3 NW 18 28 1013.4 - 2.4 - - - - - - -
25/07:22pm 14.7 NW 15 26 1012.8 - 0.2 - - - - - - -
25/07:00pm 16.1 NW 10 14 1012.9 - 0.2 - - - - - - -
25/06:30pm 15.8 NW 11 14 1012.6 - 0.2 - - - - - - -
25/06:00pm 15.8 NW 12 15 1012.2 - 0.2 - - - - - - -
25/05:30pm 15.5 WNW 11 15 1012.0 - 0.2 - - - - - - -
25/05:00pm 15.5 WNW 9 13 1011.9 - 0.2 - - - - - - -
25/04:30pm 15.8 WNW 10 23 1011.8 - 0.2 - - - - - - -
25/04:00pm 17.0 WNW 11 15 1011.5 - 0.0 - - - - - - -
25/03:30pm 17.7 WNW 12 17 1011.5 - 0.0 - - - - - - -
25/03:00pm 17.4 WNW 13 19 1011.3 - 0.0 - - - - - - -
25/02:30pm 17.8 W 13 16 1011.4 - 0.0 - - - - - - -
25/02:00pm 17.7 WNW 14 17 1011.3 - 0.0 - - - - - - -
25/01:30pm 18.5 WNW 15 19 1011.2 - 0.0 - - - - - - -
25/01:00pm 18.3 WNW 15 20 1011.2 - 0.0 - - - - - - -
25/12:30pm 18.4 WNW 14 19 1011.2 - 0.0 - - - - - - -
25/12:00pm 17.2 W 12 15 1011.6 - 0.0 - - - - - - -
25/11:30am 17.8 W 10 14 1011.9 - 0.0 - - - - - - -
25/11:00am 17.9 W 11 15 1011.9 - 0.0 - - - - - - -
25/10:30am 17.5 W 11 14 1012.0 - 0.0 - - - - - - -
25/10:00am 17.2 W 12 17 1012.0 - 0.0 - - - - - - -
25/09:30am 16.9 WNW 14 18 1012.1 - 0.0 - - - - - - -
25/09:00am 16.9 W 11 15 1011.9 - 0.0 - - - - - - -
25/08:30am 15.9 WSW 10 14 1011.8 - 0.0 - - - - - - -
25/08:00am 15.3 SW 16 20 1011.6 - 0.0 - - - - - - -
25/07:50am 15.8 SW 16 23 1011.5 - 0.0 - - - - - - -
25/07:30am 15.5 WSW 9 13 1011.4 - 0.0 - - - - - - -
25/07:00am 15.1 WSW 11 14 1011.2 - 0.0 - - - - - - -
25/06:30am 15.1 WSW 12 15 1010.9 - 0.0 - - - - - - -
25/06:00am 15.1 WSW 12 17 1010.6 - 0.0 - - - - - - -
25/05:30am 15.2 WSW 11 15 1010.5 - 0.0 - - - - - - -
25/05:00am 15.6 WSW 12 17 1010.4 - 0.0 - - - - - - -
25/04:30am 14.9 WSW 11 16 1010.3 - 0.0 - - - - - - -
25/04:00am 14.9 W 10 14 1010.3 - 0.0 - - - - - - -
25/03:30am 13.9 WSW 15 23 1010.8 - 0.0 - - - - - - -
25/03:00am 16.1 WNW 15 20 1010.3 - 0.0 - - - - - - -
25/02:30am 15.9 WSW 13 18 1010.4 - 0.0 - - - - - - -
25/02:00am 16.2 WSW 17 21 1010.3 - 0.0 - - - - - - -
25/01:30am 16.3 W 10 16 1010.3 - 0.0 - - - - - - -
25/01:00am 15.8 W 10 13 1010.5 - 0.0 - - - - - - -
25/12:30am 15.4 WSW 11 14 1010.6 - 0.0 - - - - - - -
25/12:00am 15.8 W 11 18 1010.6 - 0.0 - - - - - - -
 
Date/Time
WST
Temp

°C
Wind Pressure Rain
since 9am
mm
Weather Cloud Vis
km
Sea
Height
m
Swell
Dir
 
Speed
knots
Gust
knots
hPa Trend Height
m
Period
s
Dir
24/11:30pm 15.5 WSW 12 16 1010.5 - 0.0 - - - - - - -
24/11:00pm 15.3 SW 17 23 1010.5 - 0.0 - - - - - - -
24/10:30pm 15.6 WNW 11 16 1010.6 - 0.0 - - - - - - -
24/10:00pm 15.5 W 9 12 1010.7 - 0.0 - - - - - - -
24/09:30pm 14.9 SW 9 12 1010.6 - 0.0 - - - - - - -
24/09:00pm 15.4 SW 12 17 1010.6 - 0.0 - - - - - - -
24/08:30pm 15.4 WNW 14 18 1010.6 - 0.0 - - - - - - -

Other Formats:

Comma delimited format used in spreadsheet applications
http://www.bom.gov.au/fwo/IDW60701/IDW60701.94602.axf

JavaScript Object Notation format (JSON) in row-major order
http://www.bom.gov.au/fwo/IDW60701/IDW60701.94602.json